Corpus Christi, Texas
Current Conditions -  °F | °C
As of 5:23 AM on Monday 22 Dec 2014 (Local Time) from KCRP Reporting Station
Haze Haze  
Wind Chill: 59°   Ceiling: 200
Heat Index: 59°   Visibility: 2mi
Dew Point: 59°   Wind: 6mph
Humidity: 100%   Direction: 190°S
Pressure: 29.77"   Gusts: NA
Location:  27.8°N, 97.4°W
Report Text: KCRP 221123Z 19005KT 2SM BR BKN002 OVC023 15/15 A2977 RMK AO2 T01500150 $
Loading
Personal Weather Stations






























Interactive Weather Map New forecast layout! Learn more

10-Day Weather Forecast

Advertisements
Track Severe Weather on mobile